KROX

Roseau Municipal / Rudy Billberg Field Airport

Roseau, Minnesota, USA
METAR KROX 231135Z AUTO 36004KT 10SM OVC022 01/M03 A3039 RMK AO2
Observed Flight Rules
Oct-23 @ 11:35 UTC (15 minutes ago) Marginal Visual Flight Rules
Wind Visibility Clouds
360° at 4 knots 10 miles
  • Overcast at 2,200' AGL
Temperatures Readings
Current 1°C / 34°F
Dewpoint -3°C / 27°F
Humidity 75%
Altimeter 30.39" Hg
Pressure 1029 hPa
Elevation 323
METAR KROX 231135Z AUTO 36004KT 10SM OVC022 01/M03 A3039 RMK AO2
Observed Flight Rules
Oct-23 @ 11:35 UTC
(15 minutes ago)
MVFR
Wind Visibility
360° at 4 knots 10 miles
Clouds
  • Overcast at 2,200' AGL
Temperature Dewpoint
1°C / 34°F -3°C / 27°F
Humidity Altimeter Pressure
75% 30.39" Hg 1029 hPa